createdAt,value
2023-03-21T00:00:44.631Z,10.57
2023-03-21T00:03:23.362Z,9.43
2023-03-21T00:05:53.737Z,5.63
2023-03-21T00:08:22.693Z,5.80
2023-03-21T00:11:00.578Z,12.23
2023-03-21T00:13:32.648Z,11.48
2023-03-21T00:16:09.169Z,8.13
2023-03-21T00:18:46.755Z,7.45
2023-03-21T00:24:06.628Z,5.63
2023-03-21T00:26:35.988Z,7.05
2023-03-21T00:29:03.871Z,5.00
2023-03-21T00:31:32.607Z,19.08
2023-03-21T00:34:01.940Z,5.90
2023-03-21T00:36:32.927Z,14.65
2023-03-21T00:39:01.325Z,7.97
2023-03-21T00:41:45.330Z,4.78
2023-03-21T00:44:16.110Z,5.10
2023-03-21T00:47:00.821Z,3.65
2023-03-21T00:49:37.770Z,4.63
2023-03-21T00:52:38.169Z,5.28
2023-03-21T00:54:55.814Z,7.60
2023-03-21T00:57:38.008Z,15.88
2023-03-21T01:00:11.409Z,6.45
2023-03-21T01:03:02.711Z,9.98
2023-03-21T01:05:54.481Z,12.85
2023-03-21T01:08:29.339Z,9.57
2023-03-21T01:11:02.071Z,9.20
2023-03-21T01:13:31.846Z,13.57
2023-03-21T01:16:00.600Z,11.88
2023-03-21T01:18:30.128Z,8.07
2023-03-21T01:20:59.323Z,6.50
2023-03-21T01:23:29.354Z,6.78
2023-03-21T01:25:58.418Z,7.55
2023-03-21T01:28:28.312Z,9.35
2023-03-21T01:30:56.814Z,10.63
2023-03-21T01:33:25.617Z,7.90
2023-03-21T01:36:06.344Z,6.93
2023-03-21T01:38:40.954Z,6.38
2023-03-21T01:41:19.972Z,7.68
2023-03-21T01:43:49.630Z,5.38
2023-03-21T01:46:23.547Z,5.30
2023-03-21T01:49:12.572Z,5.53
2023-03-21T01:51:52.537Z,9.25
2023-03-21T01:54:27.136Z,15.50
2023-03-21T01:56:56.907Z,16.42
2023-03-21T01:59:32.164Z,9.25
2023-03-21T02:02:18.005Z,8.70
2023-03-21T02:05:00.181Z,8.30
2023-03-21T02:07:37.906Z,6.93
2023-03-21T02:10:10.674Z,10.55
2023-03-21T02:12:42.088Z,8.05
2023-03-21T02:15:12.527Z,6.88
2023-03-21T02:18:07.956Z,7.40
2023-03-21T02:20:41.996Z,9.65
2023-03-21T02:23:16.672Z,8.65
2023-03-21T02:25:48.774Z,7.45
2023-03-21T02:28:31.759Z,7.10
2023-03-21T02:31:04.614Z,6.57
2023-03-21T02:33:52.648Z,7.07
2023-03-21T02:36:27.689Z,8.48
2023-03-21T02:39:18.084Z,6.43
2023-03-21T02:41:49.766Z,7.30
2023-03-21T02:44:47.708Z,5.45
2023-03-21T02:47:39.223Z,6.60
2023-03-21T02:50:13.807Z,6.75
2023-03-21T02:52:43.532Z,5.80
2023-03-21T02:55:19.057Z,7.10
2023-03-21T02:58:11.748Z,6.28
2023-03-21T03:00:44.909Z,7.05
2023-03-21T03:03:31.516Z,5.97
2023-03-21T03:06:04.555Z,6.32
2023-03-21T03:08:43.259Z,6.10
2023-03-21T03:11:37.511Z,7.03
2023-03-21T03:14:31.551Z,7.57
2023-03-21T03:17:07.783Z,7.00
2023-03-21T03:19:49.730Z,7.28
2023-03-21T03:22:29.016Z,7.35
2023-03-21T03:25:18.521Z,6.07
2023-03-21T03:27:55.556Z,7.20
2023-03-21T03:30:32.324Z,7.43
2023-03-21T03:33:09.625Z,7.57
2023-03-21T03:35:38.516Z,6.65
2023-03-21T03:38:08.938Z,6.55
2023-03-21T03:40:42.001Z,8.70
2023-03-21T03:43:32.829Z,8.93
2023-03-21T03:46:06.292Z,7.18
2023-03-21T03:48:38.830Z,7.93
2023-03-21T03:51:10.864Z,7.75
2023-03-21T03:54:00.870Z,7.28
2023-03-21T03:56:31.345Z,7.18
2023-03-21T03:58:59.842Z,7.57
2023-03-21T04:01:46.943Z,6.90
2023-03-21T04:04:17.119Z,8.35
2023-03-21T04:06:51.798Z,6.85
2023-03-21T04:09:34.059Z,7.15
2023-03-21T04:12:03.154Z,8.70
2023-03-21T04:14:44.109Z,10.68
2023-03-21T04:17:14.919Z,12.18
2023-03-21T04:19:43.548Z,10.43
2023-03-21T04:22:12.638Z,11.27
2023-03-21T04:24:44.937Z,13.75
2023-03-21T04:27:15.177Z,11.52
2023-03-21T04:29:46.112Z,19.92
2023-03-21T04:32:27.250Z,23.58
2023-03-21T04:35:08.468Z,24.42
2023-03-21T04:37:39.288Z,32.00
2023-03-21T04:40:11.283Z,19.58
2023-03-21T04:42:40.249Z,17.17
2023-03-21T04:45:08.791Z,15.45
2023-03-21T04:47:37.488Z,193.30
2023-03-21T04:50:06.265Z,346.13
2023-03-21T04:52:34.913Z,242.30
2023-03-21T04:55:03.281Z,93.70
2023-03-21T04:57:31.825Z,30.90
2023-03-21T05:00:00.457Z,14.07
2023-03-21T05:02:29.325Z,11.75
2023-03-21T05:04:58.388Z,24.73
2023-03-21T05:07:26.612Z,13.20
2023-03-21T05:09:56.263Z,13.15
2023-03-21T05:12:25.022Z,18.92
2023-03-21T05:14:53.321Z,15.57
2023-03-21T05:17:25.086Z,13.68
2023-03-21T05:19:53.459Z,27.55
2023-03-21T05:22:24.327Z,19.70
2023-03-21T05:24:55.415Z,18.00
2023-03-21T05:27:45.553Z,11.60
2023-03-21T05:30:17.865Z,14.25
2023-03-21T05:32:50.012Z,12.02
2023-03-21T05:35:18.936Z,13.18
2023-03-21T05:37:50.990Z,11.10
2023-03-21T05:40:19.565Z,15.27
2023-03-21T05:42:48.877Z,13.88
2023-03-21T05:45:25.989Z,12.40
2023-03-21T05:47:56.170Z,13.35
2023-03-21T05:50:29.610Z,10.73
2023-03-21T05:55:43.576Z,14.13
2023-03-21T05:58:22.241Z,10.07
2023-03-21T06:00:52.402Z,9.65
2023-03-21T06:03:30.085Z,14.50
2023-03-21T06:06:03.652Z,9.35
2023-03-21T06:08:39.476Z,13.60
2023-03-21T06:11:13.660Z,17.83
2023-03-21T06:13:42.372Z,34.80
2023-03-21T06:16:10.931Z,16.20
2023-03-21T06:18:40.350Z,15.57
2023-03-21T06:21:27.046Z,14.70
2023-03-21T06:23:55.808Z,15.73
2023-03-21T06:26:24.576Z,17.92
2023-03-21T06:28:54.957Z,13.45
2023-03-21T06:31:25.217Z,13.50
2023-03-21T06:33:56.883Z,14.18
2023-03-21T06:36:25.459Z,13.65
2023-03-21T06:38:54.268Z,13.60
2023-03-21T06:41:22.737Z,13.30
2023-03-21T06:43:59.145Z,15.45
2023-03-21T06:46:28.065Z,15.02
2023-03-21T06:48:57.036Z,13.65
2023-03-21T06:51:26.859Z,12.85
2023-03-21T06:54:07.862Z,13.18
2023-03-21T06:56:48.653Z,12.15
2023-03-21T06:59:24.342Z,11.10
2023-03-21T07:01:59.951Z,13.02
2023-03-21T07:04:29.173Z,12.00
2023-03-21T07:06:59.139Z,10.73
2023-03-21T07:09:29.353Z,12.00
2023-03-21T07:12:03.331Z,15.18
2023-03-21T07:14:45.286Z,15.05
2023-03-21T07:17:13.632Z,17.10
2023-03-21T07:19:44.705Z,18.65
2023-03-21T07:22:22.869Z,29.67
2023-03-21T07:25:03.897Z,20.20
2023-03-21T07:27:35.495Z,14.25
2023-03-21T07:30:05.507Z,14.10
2023-03-21T07:32:35.168Z,14.82
2023-03-21T07:35:05.192Z,12.82
2023-03-21T07:37:38.162Z,11.95
2023-03-21T07:40:12.427Z,16.35
2023-03-21T07:42:41.956Z,13.65
2023-03-21T07:45:19.862Z,12.48
2023-03-21T07:47:49.536Z,34.92
2023-03-21T07:50:18.486Z,23.90
2023-03-21T07:52:47.348Z,15.43
2023-03-21T07:55:17.376Z,19.83
2023-03-21T07:57:45.855Z,17.23
2023-03-21T08:00:23.281Z,12.30
2023-03-21T08:02:57.826Z,12.95
2023-03-21T08:05:37.496Z,8.60
2023-03-21T08:08:06.890Z,37.35
2023-03-21T08:10:35.494Z,8.93
2023-03-21T08:13:04.048Z,21.50
2023-03-21T08:15:32.736Z,16.85
2023-03-21T08:18:01.315Z,24.80
2023-03-21T08:20:30.208Z,13.30
2023-03-21T08:22:58.656Z,8.27
2023-03-21T08:25:27.260Z,7.00
2023-03-21T08:27:55.913Z,8.57
2023-03-21T08:30:26.317Z,7.95
2023-03-21T08:33:02.190Z,7.13
2023-03-21T08:38:14.171Z,12.60
2023-03-21T08:40:42.755Z,8.50
2023-03-21T08:43:13.094Z,18.38
2023-03-21T08:45:43.205Z,10.00
2023-03-21T08:48:11.483Z,18.42
2023-03-21T08:53:22.820Z,8.50
2023-03-21T08:55:51.920Z,13.18
2023-03-21T08:58:20.139Z,6.63
2023-03-21T09:00:48.809Z,11.00
2023-03-21T09:03:17.281Z,5.25
2023-03-21T09:05:45.919Z,26.92
2023-03-21T09:08:14.277Z,8.15
2023-03-21T09:10:42.799Z,4.78
2023-03-21T09:13:10.991Z,5.50
2023-03-21T09:15:40.529Z,3.58
2023-03-21T09:18:16.407Z,3.33
2023-03-21T09:20:46.772Z,4.75
2023-03-21T09:23:15.452Z,5.35
2023-03-21T09:25:46.119Z,14.10
2023-03-21T09:28:14.447Z,6.90
2023-03-21T09:30:43.087Z,3.05
2023-03-21T09:33:19.403Z,5.18
2023-03-21T09:35:50.660Z,4.10
2023-03-21T09:38:20.103Z,9.98
2023-03-21T09:40:56.044Z,8.75
2023-03-21T09:43:33.179Z,34.03
2023-03-21T09:46:07.130Z,31.38
2023-03-21T09:49:03.476Z,54.22
2023-03-21T09:54:02.494Z,13.07
2023-03-21T09:56:31.290Z,19.95
2023-03-21T09:59:01.504Z,6.28
2023-03-21T10:01:34.497Z,21.75
2023-03-21T10:04:13.616Z,4.75
2023-03-21T10:06:49.869Z,14.77
2023-03-21T10:09:21.803Z,6.00
2023-03-21T10:11:54.613Z,10.23
2023-03-21T10:14:34.145Z,8.57
2023-03-21T10:20:26.054Z,17.85
2023-03-21T10:22:56.837Z,16.67
2023-03-21T10:25:33.465Z,11.13
2023-03-21T10:28:02.788Z,26.10
2023-03-21T10:30:36.327Z,18.63
2023-03-21T10:33:09.743Z,17.58
2023-03-21T10:35:41.308Z,4.50
2023-03-21T10:38:15.527Z,4.85
2023-03-21T10:40:44.243Z,6.03
2023-03-21T10:43:18.870Z,19.35
2023-03-21T10:45:49.100Z,44.05
2023-03-21T10:48:20.594Z,12.07
2023-03-21T10:50:52.559Z,4.78
2023-03-21T10:53:22.689Z,5.60
2023-03-21T10:55:59.642Z,3.80
2023-03-21T10:58:34.850Z,49.50
2023-03-21T11:01:06.933Z,7.95
2023-03-21T11:03:43.719Z,53.60
2023-03-21T11:06:28.354Z,11.30
2023-03-21T11:09:02.609Z,12.40
2023-03-21T11:11:35.503Z,11.60
2023-03-21T11:14:09.695Z,13.25
2023-03-21T11:16:41.047Z,14.45
2023-03-21T11:19:26.748Z,8.13
2023-03-21T11:22:07.764Z,13.73
2023-03-21T11:24:37.032Z,19.38
2023-03-21T11:27:09.266Z,14.18
2023-03-21T11:29:41.348Z,27.08
2023-03-21T11:32:20.958Z,14.68
2023-03-21T11:34:53.351Z,7.05
2023-03-21T11:37:31.302Z,7.90
2023-03-21T11:40:20.792Z,11.05
2023-03-21T11:42:52.000Z,7.70
2023-03-21T11:45:22.283Z,4.30
2023-03-21T11:47:53.030Z,93.32
2023-03-21T11:50:25.034Z,9.10
2023-03-21T11:52:53.330Z,12.05
2023-03-21T11:55:32.509Z,6.43
2023-03-21T11:58:14.598Z,21.98
2023-03-21T12:00:59.756Z,19.25
2023-03-21T12:03:30.726Z,24.27
2023-03-21T12:06:03.222Z,4.80
2023-03-21T12:08:38.324Z,10.90
2023-03-21T12:11:07.103Z,5.13
2023-03-21T12:13:48.719Z,7.75
2023-03-21T12:16:53.348Z,38.50
2023-03-21T12:20:00.420Z,8.18
2023-03-21T12:22:50.540Z,8.82
2023-03-21T12:25:31.533Z,5.95
2023-03-21T12:28:09.592Z,10.77
2023-03-21T12:30:38.402Z,21.35
2023-03-21T12:33:31.600Z,29.27
2023-03-21T12:36:14.490Z,22.42
2023-03-21T12:38:49.346Z,23.30
2023-03-21T12:41:20.321Z,20.85
2023-03-21T12:43:55.425Z,4.88
2023-03-21T12:46:34.298Z,12.07
2023-03-21T12:49:08.660Z,5.38
2023-03-21T12:51:43.607Z,4.68
2023-03-21T12:54:12.368Z,9.70
2023-03-21T12:57:01.033Z,4.82
2023-03-21T12:59:36.353Z,27.90
2023-03-21T13:02:14.814Z,6.13
2023-03-21T13:04:52.046Z,20.30
2023-03-21T13:07:21.944Z,6.18
2023-03-21T13:09:51.441Z,10.63
2023-03-21T13:12:26.855Z,16.00
2023-03-21T13:15:23.762Z,9.70
2023-03-21T13:18:04.234Z,5.65
2023-03-21T13:20:40.357Z,4.57
2023-03-21T13:23:09.515Z,22.02
2023-03-21T13:25:47.860Z,24.00
2023-03-21T13:28:24.147Z,10.23
2023-03-21T13:30:53.007Z,6.53
2023-03-21T13:33:29.569Z,5.75
2023-03-21T13:36:08.933Z,31.10
2023-03-21T13:38:40.381Z,13.43
2023-03-21T13:41:12.333Z,28.48
2023-03-21T13:44:06.699Z,31.73
2023-03-21T13:46:50.563Z,29.15
2023-03-21T13:49:27.877Z,8.70
2023-03-21T13:54:44.912Z,31.20
2023-03-21T13:57:38.758Z,11.48
2023-03-21T14:00:18.442Z,13.63
2023-03-21T14:02:57.546Z,53.70
2023-03-21T14:05:27.250Z,11.80
2023-03-21T14:08:12.665Z,58.83
2023-03-21T14:10:47.001Z,34.90
2023-03-21T14:13:21.149Z,38.65
2023-03-21T14:15:56.021Z,14.25
2023-03-21T14:21:23.361Z,9.98
2023-03-21T14:24:00.048Z,27.30
2023-03-21T14:26:30.446Z,15.00
2023-03-21T14:29:03.789Z,26.45
2023-03-21T14:31:32.813Z,5.35
2023-03-21T14:34:03.313Z,5.47
2023-03-21T14:36:34.614Z,21.80
2023-03-21T14:39:16.184Z,16.85
2023-03-21T14:41:50.909Z,8.18
2023-03-21T14:44:38.068Z,11.07
2023-03-21T14:47:29.246Z,11.70
2023-03-21T14:49:58.353Z,36.40
2023-03-21T14:52:31.261Z,11.43
2023-03-21T14:55:01.273Z,51.90
2023-03-21T14:57:31.518Z,7.95
2023-03-21T15:00:02.163Z,10.70
2023-03-21T15:02:36.967Z,20.42
2023-03-21T15:05:14.943Z,6.65
2023-03-21T15:07:43.245Z,8.63
2023-03-21T15:10:18.119Z,240.63
2023-03-21T15:12:56.281Z,20.70
2023-03-21T15:15:27.668Z,38.80
2023-03-21T15:17:57.590Z,7.63
2023-03-21T15:20:32.044Z,8.18
2023-03-21T15:23:05.943Z,14.25
2023-03-21T15:25:36.254Z,7.70
2023-03-21T15:28:06.510Z,13.93
2023-03-21T15:30:36.502Z,15.40
2023-03-21T15:33:10.509Z,9.35
2023-03-21T15:35:43.667Z,10.27
2023-03-21T15:38:37.354Z,33.25
2023-03-21T15:41:21.324Z,20.40
2023-03-21T15:44:09.984Z,7.82
2023-03-21T15:46:43.749Z,6.57
2023-03-21T15:49:15.547Z,18.35
2023-03-21T15:51:47.298Z,6.15
2023-03-21T15:54:22.237Z,6.38
2023-03-21T15:56:54.930Z,19.02
2023-03-21T15:59:26.778Z,9.23
2023-03-21T16:01:55.839Z,18.73
2023-03-21T16:04:24.528Z,17.75
2023-03-21T16:07:01.556Z,37.65
2023-03-21T16:09:42.817Z,23.40
2023-03-21T16:12:12.905Z,23.67
2023-03-21T16:14:42.640Z,41.22
2023-03-21T16:17:24.002Z,177.25
2023-03-21T16:19:52.340Z,61.45
2023-03-21T16:22:22.418Z,63.97
2023-03-21T16:24:50.725Z,76.40
2023-03-21T16:27:20.392Z,35.47
2023-03-21T16:29:49.174Z,41.65
2023-03-21T16:32:28.969Z,25.98
2023-03-21T16:38:11.353Z,37.95
2023-03-21T16:40:43.854Z,34.92
2023-03-21T16:43:12.642Z,37.92
2023-03-21T16:45:41.260Z,81.72
2023-03-21T16:48:16.467Z,146.38
2023-03-21T16:50:49.610Z,119.23
2023-03-21T16:53:18.418Z,110.75
2023-03-21T16:55:46.634Z,86.85
2023-03-21T16:58:18.190Z,53.97
2023-03-21T17:00:49.778Z,95.38
2023-03-21T17:03:19.482Z,93.70
2023-03-21T17:05:48.329Z,67.35
2023-03-21T17:08:19.657Z,57.97
2023-03-21T17:10:48.259Z,36.80
2023-03-21T17:13:19.493Z,29.88
2023-03-21T17:15:49.674Z,36.08
2023-03-21T17:18:20.113Z,41.83
2023-03-21T17:20:48.800Z,48.75
2023-03-21T17:23:17.519Z,48.20
2023-03-21T17:25:45.633Z,37.25
2023-03-21T17:28:14.405Z,44.40
2023-03-21T17:30:44.060Z,56.50
2023-03-21T17:33:15.577Z,122.57
2023-03-21T17:35:47.161Z,145.43
2023-03-21T17:38:19.810Z,110.53
2023-03-21T17:40:50.898Z,159.30
2023-03-21T17:43:26.712Z,172.45
2023-03-21T17:45:59.631Z,112.18
2023-03-21T17:48:30.869Z,104.80
2023-03-21T17:51:01.671Z,80.57
2023-03-21T17:53:34.329Z,76.57
2023-03-21T17:56:03.972Z,131.48
2023-03-21T17:58:32.576Z,117.05
2023-03-21T18:01:00.858Z,123.65
2023-03-21T18:03:29.260Z,125.53
2023-03-21T18:05:59.412Z,118.18
2023-03-21T18:08:28.500Z,74.20
2023-03-21T18:10:59.294Z,85.05
2023-03-21T18:13:27.829Z,124.25
2023-03-21T18:15:56.549Z,134.65
2023-03-21T18:18:27.245Z,110.30
2023-03-21T18:20:59.023Z,102.05
2023-03-21T18:23:28.100Z,111.15
2023-03-21T18:25:56.325Z,132.75
2023-03-21T18:28:25.408Z,102.15
2023-03-21T18:31:16.750Z,106.63
2023-03-21T18:33:47.432Z,149.35
2023-03-21T18:36:24.088Z,134.82
2023-03-21T18:38:53.395Z,153.10
2023-03-21T18:41:22.977Z,129.68
2023-03-21T18:44:06.808Z,159.73
2023-03-21T18:46:46.978Z,185.05
2023-03-21T18:52:06.415Z,152.23
2023-03-21T18:54:36.582Z,141.38
2023-03-21T18:57:34.577Z,120.70
2023-03-21T18:59:54.339Z,112.53
2023-03-21T19:02:22.817Z,113.57
2023-03-21T19:04:52.959Z,118.88
2023-03-21T19:07:21.009Z,99.47
2023-03-21T19:10:15.854Z,83.55
2023-03-21T19:12:37.122Z,161.15
2023-03-21T19:15:06.298Z,153.93
2023-03-21T19:18:24.930Z,138.95
2023-03-21T19:20:23.786Z,143.40
2023-03-21T19:22:52.128Z,329.42
2023-03-21T19:25:21.785Z,182.77
2023-03-21T19:27:52.076Z,201.68
2023-03-21T19:30:20.918Z,204.65
2023-03-21T19:32:49.252Z,230.18
2023-03-21T19:35:18.445Z,258.65
2023-03-21T19:37:47.297Z,282.30
2023-03-21T19:40:16.289Z,270.92
2023-03-21T19:42:51.643Z,152.48
2023-03-21T19:45:20.374Z,193.02
2023-03-21T19:47:48.744Z,130.38
2023-03-21T19:50:57.884Z,206.52
2023-03-21T19:53:08.777Z,103.35
2023-03-21T19:55:37.254Z,81.40
2023-03-21T19:58:08.694Z,60.72
2023-03-21T20:00:38.423Z,74.63
2023-03-21T20:03:09.265Z,92.82
2023-03-21T20:05:38.391Z,102.53
2023-03-21T20:08:10.613Z,100.82
2023-03-21T20:10:39.893Z,93.53
2023-03-21T20:13:09.013Z,101.03
2023-03-21T20:15:46.001Z,107.78
2023-03-21T20:18:18.671Z,119.50
2023-03-21T20:20:53.306Z,145.02
2023-03-21T20:23:21.947Z,97.18
2023-03-21T20:25:50.572Z,81.50
2023-03-21T20:28:28.627Z,75.13
2023-03-21T20:30:58.543Z,66.20
2023-03-21T20:33:28.128Z,87.45
2023-03-21T20:36:38.260Z,90.95
2023-03-21T20:38:56.905Z,92.05
2023-03-21T20:41:25.511Z,119.45
2023-03-21T20:46:47.095Z,182.65
2023-03-21T20:49:16.473Z,118.20
2023-03-21T20:52:44.646Z,115.43
2023-03-21T20:54:34.974Z,123.75
2023-03-21T20:57:04.900Z,85.30
2023-03-21T20:59:33.694Z,92.90
2023-03-21T21:02:05.667Z,121.53
2023-03-21T21:04:49.885Z,107.68
2023-03-21T21:07:27.557Z,113.88
2023-03-21T21:09:55.860Z,120.15
2023-03-21T21:12:27.793Z,172.85
2023-03-21T21:14:56.969Z,113.18
2023-03-21T21:18:04.011Z,88.57
2023-03-21T21:20:17.625Z,90.57
2023-03-21T21:22:58.538Z,107.85
2023-03-21T21:25:29.371Z,114.85
2023-03-21T21:27:58.306Z,67.15
2023-03-21T21:30:26.602Z,51.38
2023-03-21T21:32:55.133Z,40.60
2023-03-21T21:35:23.444Z,39.83
2023-03-21T21:42:06.405Z,41.85
2023-03-21T21:44:36.412Z,51.58
2023-03-21T21:47:08.642Z,51.45
2023-03-21T21:49:37.358Z,46.13
2023-03-21T21:52:05.866Z,138.52
2023-03-21T21:54:34.461Z,53.00
2023-03-21T21:57:05.763Z,61.42
2023-03-21T21:59:34.336Z,68.57
2023-03-21T22:02:05.000Z,56.10
2023-03-21T22:04:34.791Z,64.15
2023-03-21T22:07:02.948Z,53.15
2023-03-21T22:09:31.912Z,49.42
2023-03-21T22:12:00.441Z,47.35
2023-03-21T22:14:28.975Z,55.25
2023-03-21T22:16:59.613Z,86.88
2023-03-21T22:19:31.326Z,72.75
2023-03-21T22:22:00.024Z,80.88
2023-03-21T22:24:29.216Z,112.70
2023-03-21T22:27:00.409Z,154.65
2023-03-21T22:29:34.194Z,122.65
2023-03-21T22:32:02.586Z,122.78
2023-03-21T22:34:31.252Z,75.32
2023-03-21T22:36:59.949Z,53.28
2023-03-21T22:39:32.219Z,57.47
2023-03-21T22:42:52.678Z,61.50
2023-03-21T22:45:21.287Z,42.90
2023-03-21T22:47:49.708Z,65.13
2023-03-21T22:50:18.512Z,462.38
2023-03-21T22:52:47.040Z,678.42
2023-03-21T22:55:15.760Z,872.60
2023-03-21T22:57:44.095Z,845.88
2023-03-21T23:00:13.256Z,365.83
2023-03-21T23:02:42.990Z,210.73
2023-03-21T23:05:12.674Z,384.65
2023-03-21T23:07:41.052Z,163.93
2023-03-21T23:10:12.335Z,64.50
2023-03-21T23:12:41.304Z,162.27
2023-03-21T23:15:10.815Z,204.40
2023-03-21T23:17:40.344Z,198.18
2023-03-21T23:20:09.862Z,167.23
2023-03-21T23:22:39.367Z,157.27
2023-03-21T23:25:11.414Z,106.10
2023-03-21T23:27:43.756Z,63.33
2023-03-21T23:30:13.286Z,62.13
2023-03-21T23:32:41.452Z,30.25
2023-03-21T23:35:12.242Z,27.33
2023-03-21T23:37:42.506Z,35.42
2023-03-21T23:40:12.661Z,31.20
2023-03-21T23:42:41.258Z,42.50
2023-03-21T23:45:10.199Z,40.08
2023-03-21T23:47:38.412Z,53.15
2023-03-21T23:50:08.002Z,65.65
2023-03-21T23:52:37.626Z,48.92
2023-03-21T23:55:06.512Z,47.30
2023-03-21T23:57:34.629Z,38.25
